sensor_id;sensor_type;location;lat;lon;timestamp;temperature;humidity
1526;DHT22;756;49.982;8.240;2022-08-19T00:01:25;23.90;64.10
1526;DHT22;756;49.982;8.240;2022-08-19T00:04:00;23.90;64.10
1526;DHT22;756;49.982;8.240;2022-08-19T00:06:29;23.90;64.00
1526;DHT22;756;49.982;8.240;2022-08-19T00:08:57;23.90;64.00
1526;DHT22;756;49.982;8.240;2022-08-19T00:11:24;23.90;64.00
1526;DHT22;756;49.982;8.240;2022-08-19T00:13:52;23.90;64.00
1526;DHT22;756;49.982;8.240;2022-08-19T00:16:24;23.90;64.00
1526;DHT22;756;49.982;8.240;2022-08-19T00:18:53;23.90;64.00
1526;DHT22;756;49.982;8.240;2022-08-19T00:21:23;23.80;64.10
1526;DHT22;756;49.982;8.240;2022-08-19T00:23:50;23.80;64.10
1526;DHT22;756;49.982;8.240;2022-08-19T00:26:17;23.80;64.10
1526;DHT22;756;49.982;8.240;2022-08-19T00:28:44;23.80;64.20
1526;DHT22;756;49.982;8.240;2022-08-19T00:31:11;23.80;64.20
1526;DHT22;756;49.982;8.240;2022-08-19T00:33:37;23.80;64.20
1526;DHT22;756;49.982;8.240;2022-08-19T00:36:06;23.80;64.20
1526;DHT22;756;49.982;8.240;2022-08-19T00:38:35;23.80;64.20
1526;DHT22;756;49.982;8.240;2022-08-19T00:41:05;23.80;64.20
1526;DHT22;756;49.982;8.240;2022-08-19T00:43:32;23.80;64.20
1526;DHT22;756;49.982;8.240;2022-08-19T00:45:58;23.80;64.20
1526;DHT22;756;49.982;8.240;2022-08-19T00:48:25;23.80;64.20
1526;DHT22;756;49.982;8.240;2022-08-19T00:50:53;23.80;64.20
1526;DHT22;756;49.982;8.240;2022-08-19T00:53:24;23.80;64.20
1526;DHT22;756;49.982;8.240;2022-08-19T00:55:55;23.80;64.20
1526;DHT22;756;49.982;8.240;2022-08-19T00:58:26;23.80;64.20
1526;DHT22;756;49.982;8.240;2022-08-19T01:00:54;23.80;64.10
1526;DHT22;756;49.982;8.240;2022-08-19T01:03:22;23.80;64.20
1526;DHT22;756;49.982;8.240;2022-08-19T01:05:50;23.80;64.10
1526;DHT22;756;49.982;8.240;2022-08-19T01:08:19;23.70;64.30
1526;DHT22;756;49.982;8.240;2022-08-19T01:10:49;23.70;64.30
1526;DHT22;756;49.982;8.240;2022-08-19T01:13:20;23.70;64.40
1526;DHT22;756;49.982;8.240;2022-08-19T01:15:57;23.70;64.60
1526;DHT22;756;49.982;8.240;2022-08-19T01:18:27;23.70;64.60
1526;DHT22;756;49.982;8.240;2022-08-19T01:20:56;23.70;64.60
1526;DHT22;756;49.982;8.240;2022-08-19T01:23:24;23.60;64.60
1526;DHT22;756;49.982;8.240;2022-08-19T01:26:15;23.60;64.60
1526;DHT22;756;49.982;8.240;2022-08-19T01:28:44;23.70;64.60
1526;DHT22;756;49.982;8.240;2022-08-19T01:31:21;23.60;64.60
1526;DHT22;756;49.982;8.240;2022-08-19T01:33:55;23.60;64.60
1526;DHT22;756;49.982;8.240;2022-08-19T01:36:33;23.60;64.60
1526;DHT22;756;49.982;8.240;2022-08-19T01:39:05;23.60;64.60
1526;DHT22;756;49.982;8.240;2022-08-19T01:41:32;23.60;64.60
1526;DHT22;756;49.982;8.240;2022-08-19T01:43:59;23.60;64.60
1526;DHT22;756;49.982;8.240;2022-08-19T01:46:45;23.60;64.70
1526;DHT22;756;49.982;8.240;2022-08-19T01:49:12;23.60;64.80
1526;DHT22;756;49.982;8.240;2022-08-19T01:51:39;23.60;65.00
1526;DHT22;756;49.982;8.240;2022-08-19T01:54:10;23.60;65.00
1526;DHT22;756;49.982;8.240;2022-08-19T01:56:50;23.60;65.00
1526;DHT22;756;49.982;8.240;2022-08-19T01:59:20;23.50;65.20
1526;DHT22;756;49.982;8.240;2022-08-19T02:01:47;23.50;65.30
1526;DHT22;756;49.982;8.240;2022-08-19T02:04:14;23.50;65.30
1526;DHT22;756;49.982;8.240;2022-08-19T02:06:41;23.50;65.20
1526;DHT22;756;49.982;8.240;2022-08-19T02:09:09;23.50;65.20
1526;DHT22;756;49.982;8.240;2022-08-19T02:11:37;23.50;65.20
1526;DHT22;756;49.982;8.240;2022-08-19T02:14:06;23.50;65.20
1526;DHT22;756;49.982;8.240;2022-08-19T02:16:34;23.50;65.20
1526;DHT22;756;49.982;8.240;2022-08-19T02:19:02;23.50;65.30
1526;DHT22;756;49.982;8.240;2022-08-19T02:21:29;23.40;65.40
1526;DHT22;756;49.982;8.240;2022-08-19T02:23:57;23.40;65.40
1526;DHT22;756;49.982;8.240;2022-08-19T02:26:24;23.40;65.40
1526;DHT22;756;49.982;8.240;2022-08-19T02:28:53;23.40;65.40
1526;DHT22;756;49.982;8.240;2022-08-19T02:31:22;23.40;65.50
1526;DHT22;756;49.982;8.240;2022-08-19T02:33:51;23.40;65.60
1526;DHT22;756;49.982;8.240;2022-08-19T02:36:23;23.40;65.60
1526;DHT22;756;49.982;8.240;2022-08-19T02:38:50;23.40;65.60
1526;DHT22;756;49.982;8.240;2022-08-19T02:41:26;23.40;65.70
1526;DHT22;756;49.982;8.240;2022-08-19T02:43:55;23.30;65.70
1526;DHT22;756;49.982;8.240;2022-08-19T02:46:44;23.30;65.70
1526;DHT22;756;49.982;8.240;2022-08-19T02:49:11;23.30;65.80
1526;DHT22;756;49.982;8.240;2022-08-19T02:51:41;23.30;65.70
1526;DHT22;756;49.982;8.240;2022-08-19T02:54:10;23.30;65.60
1526;DHT22;756;49.982;8.240;2022-08-19T02:56:39;23.30;65.60
1526;DHT22;756;49.982;8.240;2022-08-19T02:59:06;23.30;65.60
1526;DHT22;756;49.982;8.240;2022-08-19T03:01:37;23.20;65.60
1526;DHT22;756;49.982;8.240;2022-08-19T03:04:06;23.20;65.70
1526;DHT22;756;49.982;8.240;2022-08-19T03:06:36;23.20;65.70
1526;DHT22;756;49.982;8.240;2022-08-19T03:09:04;23.20;65.60
1526;DHT22;756;49.982;8.240;2022-08-19T03:11:31;23.30;65.50
1526;DHT22;756;49.982;8.240;2022-08-19T03:13:59;23.20;65.60
1526;DHT22;756;49.982;8.240;2022-08-19T03:16:29;23.20;65.70
1526;DHT22;756;49.982;8.240;2022-08-19T03:19:00;23.20;65.70
1526;DHT22;756;49.982;8.240;2022-08-19T03:21:30;23.10;65.80
1526;DHT22;756;49.982;8.240;2022-08-19T03:24:02;23.10;65.90
1526;DHT22;756;49.982;8.240;2022-08-19T03:26:29;23.10;66.00
1526;DHT22;756;49.982;8.240;2022-08-19T03:28:56;23.10;66.00
1526;DHT22;756;49.982;8.240;2022-08-19T03:31:26;23.10;66.10
1526;DHT22;756;49.982;8.240;2022-08-19T03:34:17;23.10;66.10
1526;DHT22;756;49.982;8.240;2022-08-19T03:36:45;23.10;66.10
1526;DHT22;756;49.982;8.240;2022-08-19T03:39:12;23.00;66.20
1526;DHT22;756;49.982;8.240;2022-08-19T03:41:41;23.00;66.30
1526;DHT22;756;49.982;8.240;2022-08-19T03:44:16;23.00;66.30
1526;DHT22;756;49.982;8.240;2022-08-19T03:46:47;23.00;66.40
1526;DHT22;756;49.982;8.240;2022-08-19T03:49:14;22.90;66.50
1526;DHT22;756;49.982;8.240;2022-08-19T03:51:44;22.90;66.50
1526;DHT22;756;49.982;8.240;2022-08-19T03:54:13;22.90;66.60
1526;DHT22;756;49.982;8.240;2022-08-19T03:56:42;22.90;66.60
1526;DHT22;756;49.982;8.240;2022-08-19T03:59:12;22.90;66.70
1526;DHT22;756;49.982;8.240;2022-08-19T04:01:39;22.90;66.80
1526;DHT22;756;49.982;8.240;2022-08-19T04:04:06;22.90;66.80
1526;DHT22;756;49.982;8.240;2022-08-19T04:06:36;22.90;67.00
1526;DHT22;756;49.982;8.240;2022-08-19T04:09:08;22.90;67.10
1526;DHT22;756;49.982;8.240;2022-08-19T04:11:43;22.80;67.20
1526;DHT22;756;49.982;8.240;2022-08-19T04:14:15;22.80;67.20
1526;DHT22;756;49.982;8.240;2022-08-19T04:16:43;22.90;67.20
1526;DHT22;756;49.982;8.240;2022-08-19T04:19:11;22.80;67.20
1526;DHT22;756;49.982;8.240;2022-08-19T04:21:38;22.80;67.20
1526;DHT22;756;49.982;8.240;2022-08-19T04:24:06;22.80;67.30
1526;DHT22;756;49.982;8.240;2022-08-19T04:26:35;22.80;67.50
1526;DHT22;756;49.982;8.240;2022-08-19T04:29:13;22.70;67.60
1526;DHT22;756;49.982;8.240;2022-08-19T04:31:41;22.70;67.70
1526;DHT22;756;49.982;8.240;2022-08-19T04:34:11;22.70;67.80
1526;DHT22;756;49.982;8.240;2022-08-19T04:36:40;22.70;67.90
1526;DHT22;756;49.982;8.240;2022-08-19T04:39:11;22.70;67.90
1526;DHT22;756;49.982;8.240;2022-08-19T04:41:38;22.60;68.00
1526;DHT22;756;49.982;8.240;2022-08-19T04:44:24;22.70;68.00
1526;DHT22;756;49.982;8.240;2022-08-19T04:46:52;22.60;68.00
1526;DHT22;756;49.982;8.240;2022-08-19T04:49:20;22.60;68.10
1526;DHT22;756;49.982;8.240;2022-08-19T04:51:50;22.60;68.30
1526;DHT22;756;49.982;8.240;2022-08-19T04:54:18;22.50;68.40
1526;DHT22;756;49.982;8.240;2022-08-19T04:57:06;22.50;68.40
1526;DHT22;756;49.982;8.240;2022-08-19T04:59:36;22.50;68.50
1526;DHT22;756;49.982;8.240;2022-08-19T05:02:04;22.50;68.50
1526;DHT22;756;49.982;8.240;2022-08-19T05:04:31;22.50;68.50
1526;DHT22;756;49.982;8.240;2022-08-19T05:06:59;22.50;68.40
1526;DHT22;756;49.982;8.240;2022-08-19T05:09:28;22.50;68.60
1526;DHT22;756;49.982;8.240;2022-08-19T05:12:15;22.40;68.60
1526;DHT22;756;49.982;8.240;2022-08-19T05:14:43;22.40;68.60
1526;DHT22;756;49.982;8.240;2022-08-19T05:17:11;22.40;68.60
1526;DHT22;756;49.982;8.240;2022-08-19T05:19:58;22.40;68.70
1526;DHT22;756;49.982;8.240;2022-08-19T05:22:45;22.40;68.60
1526;DHT22;756;49.982;8.240;2022-08-19T05:25:16;22.40;68.70
1526;DHT22;756;49.982;8.240;2022-08-19T05:27:45;22.40;68.80
1526;DHT22;756;49.982;8.240;2022-08-19T05:30:12;22.50;68.70
1526;DHT22;756;49.982;8.240;2022-08-19T05:32:40;22.50;68.70
1526;DHT22;756;49.982;8.240;2022-08-19T05:35:07;22.50;68.80
1526;DHT22;756;49.982;8.240;2022-08-19T05:37:34;22.50;68.80
1526;DHT22;756;49.982;8.240;2022-08-19T05:40:00;22.50;68.80
1526;DHT22;756;49.982;8.240;2022-08-19T05:42:28;22.50;68.80
1526;DHT22;756;49.982;8.240;2022-08-19T05:44:54;22.50;68.90
1526;DHT22;756;49.982;8.240;2022-08-19T05:47:22;22.50;68.90
1526;DHT22;756;49.982;8.240;2022-08-19T05:49:49;22.60;68.90
1526;DHT22;756;49.982;8.240;2022-08-19T05:52:18;22.60;68.90
1526;DHT22;756;49.982;8.240;2022-08-19T05:54:52;22.60;68.80
1526;DHT22;756;49.982;8.240;2022-08-19T05:57:21;22.70;68.60
1526;DHT22;756;49.982;8.240;2022-08-19T05:59:48;22.70;68.60
1526;DHT22;756;49.982;8.240;2022-08-19T06:02:23;22.70;68.70
1526;DHT22;756;49.982;8.240;2022-08-19T06:04:50;22.70;68.90
1526;DHT22;756;49.982;8.240;2022-08-19T06:07:16;22.80;68.70
1526;DHT22;756;49.982;8.240;2022-08-19T06:09:43;22.80;68.70
1526;DHT22;756;49.982;8.240;2022-08-19T06:12:31;22.80;68.80
1526;DHT22;756;49.982;8.240;2022-08-19T06:15:10;22.80;68.80
1526;DHT22;756;49.982;8.240;2022-08-19T06:17:37;22.90;68.90
1526;DHT22;756;49.982;8.240;2022-08-19T06:20:07;22.90;68.80
1526;DHT22;756;49.982;8.240;2022-08-19T06:22:43;22.90;68.70
1526;DHT22;756;49.982;8.240;2022-08-19T06:25:11;22.90;68.70
1526;DHT22;756;49.982;8.240;2022-08-19T06:27:38;22.90;68.60
1526;DHT22;756;49.982;8.240;2022-08-19T06:30:25;23.00;68.50
1526;DHT22;756;49.982;8.240;2022-08-19T06:32:53;23.00;68.50
1526;DHT22;756;49.982;8.240;2022-08-19T06:35:19;23.00;68.40
1526;DHT22;756;49.982;8.240;2022-08-19T06:37:46;23.00;68.30
1526;DHT22;756;49.982;8.240;2022-08-19T06:40:13;23.10;68.20
1526;DHT22;756;49.982;8.240;2022-08-19T06:42:40;23.20;68.20
1526;DHT22;756;49.982;8.240;2022-08-19T06:45:21;23.10;68.30
1526;DHT22;756;49.982;8.240;2022-08-19T06:47:51;23.20;68.40
1526;DHT22;756;49.982;8.240;2022-08-19T06:50:21;23.20;68.10
1526;DHT22;756;49.982;8.240;2022-08-19T06:52:50;23.30;68.00
1526;DHT22;756;49.982;8.240;2022-08-19T06:55:18;23.30;68.00
1526;DHT22;756;49.982;8.240;2022-08-19T06:57:46;23.30;68.00
1526;DHT22;756;49.982;8.240;2022-08-19T07:00:13;23.40;67.90
1526;DHT22;756;49.982;8.240;2022-08-19T07:02:43;23.40;67.70
1526;DHT22;756;49.982;8.240;2022-08-19T07:05:21;23.50;67.70
1526;DHT22;756;49.982;8.240;2022-08-19T07:07:48;23.60;67.50
1526;DHT22;756;49.982;8.240;2022-08-19T07:10:16;23.60;67.50
1526;DHT22;756;49.982;8.240;2022-08-19T07:12:43;23.70;67.40
1526;DHT22;756;49.982;8.240;2022-08-19T07:15:11;23.70;67.20
1526;DHT22;756;49.982;8.240;2022-08-19T07:17:38;23.80;67.20
1526;DHT22;756;49.982;8.240;2022-08-19T07:20:08;23.80;67.10
1526;DHT22;756;49.982;8.240;2022-08-19T07:22:39;23.90;66.80
1526;DHT22;756;49.982;8.240;2022-08-19T07:25:08;24.00;66.70
1526;DHT22;756;49.982;8.240;2022-08-19T07:27:35;24.10;66.60
1526;DHT22;756;49.982;8.240;2022-08-19T07:30:06;24.20;66.10
1526;DHT22;756;49.982;8.240;2022-08-19T07:32:37;24.20;65.80
1526;DHT22;756;49.982;8.240;2022-08-19T07:35:04;24.30;65.50
1526;DHT22;756;49.982;8.240;2022-08-19T07:37:32;24.40;65.30
1526;DHT22;756;49.982;8.240;2022-08-19T07:40:00;24.40;65.20
1526;DHT22;756;49.982;8.240;2022-08-19T07:42:27;24.50;65.00
1526;DHT22;756;49.982;8.240;2022-08-19T07:44:56;24.60;64.90
1526;DHT22;756;49.982;8.240;2022-08-19T07:47:22;24.60;64.70
1526;DHT22;756;49.982;8.240;2022-08-19T07:50:11;24.80;64.60
1526;DHT22;756;49.982;8.240;2022-08-19T07:52:38;24.90;63.80
1526;DHT22;756;49.982;8.240;2022-08-19T07:55:08;25.00;63.10
1526;DHT22;756;49.982;8.240;2022-08-19T07:57:55;25.00;62.80
1526;DHT22;756;49.982;8.240;2022-08-19T08:00:22;25.00;62.70
1526;DHT22;756;49.982;8.240;2022-08-19T08:02:51;25.10;62.60
1526;DHT22;756;49.982;8.240;2022-08-19T08:05:22;25.20;62.50
1526;DHT22;756;49.982;8.240;2022-08-19T08:08:10;25.10;62.70
1526;DHT22;756;49.982;8.240;2022-08-19T08:10:56;25.20;62.70
1526;DHT22;756;49.982;8.240;2022-08-19T08:13:24;25.20;62.50
1526;DHT22;756;49.982;8.240;2022-08-19T08:15:52;25.30;62.00
1526;DHT22;756;49.982;8.240;2022-08-19T08:18:22;25.30;61.70
1526;DHT22;756;49.982;8.240;2022-08-19T08:20:57;25.40;61.50
1526;DHT22;756;49.982;8.240;2022-08-19T08:23:24;25.40;61.40
1526;DHT22;756;49.982;8.240;2022-08-19T08:25:57;25.50;61.40
1526;DHT22;756;49.982;8.240;2022-08-19T08:28:25;25.50;61.20
1526;DHT22;756;49.982;8.240;2022-08-19T08:30:56;25.60;61.00
1526;DHT22;756;49.982;8.240;2022-08-19T08:33:25;25.60;61.20
1526;DHT22;756;49.982;8.240;2022-08-19T08:36:06;25.70;60.80
1526;DHT22;756;49.982;8.240;2022-08-19T08:38:36;25.70;60.60
1526;DHT22;756;49.982;8.240;2022-08-19T08:41:23;25.70;60.60
1526;DHT22;756;49.982;8.240;2022-08-19T08:43:54;25.70;60.00
1526;DHT22;756;49.982;8.240;2022-08-19T08:46:35;25.80;59.50
1526;DHT22;756;49.982;8.240;2022-08-19T08:54:41;25.90;59.10
1526;DHT22;756;49.982;8.240;2022-08-19T08:57:30;26.00;58.40
1526;DHT22;756;49.982;8.240;2022-08-19T09:00:10;26.10;58.70
1526;DHT22;756;49.982;8.240;2022-08-19T09:02:42;26.30;58.20
1526;DHT22;756;49.982;8.240;2022-08-19T09:05:10;26.30;58.10
1526;DHT22;756;49.982;8.240;2022-08-19T09:10:44;26.50;58.10
1526;DHT22;756;49.982;8.240;2022-08-19T09:13:21;26.50;58.10
1526;DHT22;756;49.982;8.240;2022-08-19T09:16:00;26.60;57.60
1526;DHT22;756;49.982;8.240;2022-08-19T09:19:01;26.70;57.50
1526;DHT22;756;49.982;8.240;2022-08-19T09:21:28;26.80;56.80
1526;DHT22;756;49.982;8.240;2022-08-19T09:23:59;26.80;56.60
1526;DHT22;756;49.982;8.240;2022-08-19T09:26:26;26.90;55.90
1526;DHT22;756;49.982;8.240;2022-08-19T09:29:13;27.00;56.10
1526;DHT22;756;49.982;8.240;2022-08-19T09:31:40;27.10;55.40
1526;DHT22;756;49.982;8.240;2022-08-19T09:34:07;27.20;55.40
1526;DHT22;756;49.982;8.240;2022-08-19T09:36:47;27.20;55.20
1526;DHT22;756;49.982;8.240;2022-08-19T09:39:20;27.30;55.30
1526;DHT22;756;49.982;8.240;2022-08-19T09:41:47;27.30;55.20
1526;DHT22;756;49.982;8.240;2022-08-19T09:44:16;27.30;55.20
1526;DHT22;756;49.982;8.240;2022-08-19T09:46:44;27.30;54.90
1526;DHT22;756;49.982;8.240;2022-08-19T09:49:14;27.30;55.10
1526;DHT22;756;49.982;8.240;2022-08-19T09:51:44;27.30;55.10
1526;DHT22;756;49.982;8.240;2022-08-19T09:54:17;27.40;55.10
1526;DHT22;756;49.982;8.240;2022-08-19T09:56:51;27.50;54.60
1526;DHT22;756;49.982;8.240;2022-08-19T09:59:17;27.50;53.80
1526;DHT22;756;49.982;8.240;2022-08-19T10:01:44;27.60;53.40
1526;DHT22;756;49.982;8.240;2022-08-19T10:04:11;27.60;53.00
1526;DHT22;756;49.982;8.240;2022-08-19T10:06:48;27.70;52.40
1526;DHT22;756;49.982;8.240;2022-08-19T10:09:19;27.80;52.30
1526;DHT22;756;49.982;8.240;2022-08-19T10:11:59;27.90;52.10
1526;DHT22;756;49.982;8.240;2022-08-19T10:14:28;28.00;51.80
1526;DHT22;756;49.982;8.240;2022-08-19T10:16:55;28.00;51.40
1526;DHT22;756;49.982;8.240;2022-08-19T10:19:24;28.10;51.20
1526;DHT22;756;49.982;8.240;2022-08-19T10:21:53;28.20;51.10
1526;DHT22;756;49.982;8.240;2022-08-19T10:24:26;28.20;51.00
1526;DHT22;756;49.982;8.240;2022-08-19T10:26:53;28.20;51.00
1526;DHT22;756;49.982;8.240;2022-08-19T10:29:24;28.20;50.80
1526;DHT22;756;49.982;8.240;2022-08-19T10:32:02;28.20;50.40
1526;DHT22;756;49.982;8.240;2022-08-19T10:34:30;28.10;50.50
1526;DHT22;756;49.982;8.240;2022-08-19T10:36:58;28.10;50.40
1526;DHT22;756;49.982;8.240;2022-08-19T10:39:29;28.10;50.50
1526;DHT22;756;49.982;8.240;2022-08-19T10:41:57;28.10;49.60
1526;DHT22;756;49.982;8.240;2022-08-19T10:44:25;28.00;49.40
1526;DHT22;756;49.982;8.240;2022-08-19T10:46:58;28.00;49.50
1526;DHT22;756;49.982;8.240;2022-08-19T10:49:25;27.90;49.70
1526;DHT22;756;49.982;8.240;2022-08-19T10:51:54;27.90;49.40
1526;DHT22;756;49.982;8.240;2022-08-19T10:54:44;28.00;49.10
1526;DHT22;756;49.982;8.240;2022-08-19T10:57:34;28.00;49.30
1526;DHT22;756;49.982;8.240;2022-08-19T11:00:22;28.00;49.40
1526;DHT22;756;49.982;8.240;2022-08-19T11:02:50;27.90;49.70
1526;DHT22;756;49.982;8.240;2022-08-19T11:05:18;27.90;49.40
1526;DHT22;756;49.982;8.240;2022-08-19T11:07:45;27.80;49.10
1526;DHT22;756;49.982;8.240;2022-08-19T11:10:13;27.80;49.10
1526;DHT22;756;49.982;8.240;2022-08-19T11:12:46;27.80;48.70
1526;DHT22;756;49.982;8.240;2022-08-19T11:15:13;27.70;48.30
1526;DHT22;756;49.982;8.240;2022-08-19T11:17:40;27.70;48.70
1526;DHT22;756;49.982;8.240;2022-08-19T11:20:08;27.70;48.70
1526;DHT22;756;49.982;8.240;2022-08-19T11:22:35;27.60;48.50
1526;DHT22;756;49.982;8.240;2022-08-19T11:25:09;27.50;48.80
1526;DHT22;756;49.982;8.240;2022-08-19T11:27:40;27.50;49.40
1526;DHT22;756;49.982;8.240;2022-08-19T11:30:12;27.40;49.20
1526;DHT22;756;49.982;8.240;2022-08-19T11:32:41;27.40;48.90
1526;DHT22;756;49.982;8.240;2022-08-19T11:35:15;27.40;48.50
1526;DHT22;756;49.982;8.240;2022-08-19T11:37:42;27.40;48.40
1526;DHT22;756;49.982;8.240;2022-08-19T11:40:09;27.40;48.00
1526;DHT22;756;49.982;8.240;2022-08-19T11:42:36;27.40;48.20
1526;DHT22;756;49.982;8.240;2022-08-19T11:45:24;27.40;47.90
1526;DHT22;756;49.982;8.240;2022-08-19T11:47:51;27.40;48.60
1526;DHT22;756;49.982;8.240;2022-08-19T11:50:18;27.40;48.70
1526;DHT22;756;49.982;8.240;2022-08-19T11:52:45;27.40;48.60
1526;DHT22;756;49.982;8.240;2022-08-19T11:55:13;27.40;48.50
1526;DHT22;756;49.982;8.240;2022-08-19T11:57:41;27.40;48.50
1526;DHT22;756;49.982;8.240;2022-08-19T12:00:08;27.40;49.10
1526;DHT22;756;49.982;8.240;2022-08-19T12:02:36;27.40;48.60
1526;DHT22;756;49.982;8.240;2022-08-19T12:05:03;27.40;48.70
1526;DHT22;756;49.982;8.240;2022-08-19T12:07:37;27.40;48.80
1526;DHT22;756;49.982;8.240;2022-08-19T12:10:04;27.40;48.90
1526;DHT22;756;49.982;8.240;2022-08-19T12:12:31;27.40;48.70
1526;DHT22;756;49.982;8.240;2022-08-19T12:14:58;27.40;48.40
1526;DHT22;756;49.982;8.240;2022-08-19T12:17:28;27.50;48.70
1526;DHT22;756;49.982;8.240;2022-08-19T12:19:55;27.50;48.50
1526;DHT22;756;49.982;8.240;2022-08-19T12:22:22;27.60;48.40
1526;DHT22;756;49.982;8.240;2022-08-19T12:24:48;27.60;48.30
1526;DHT22;756;49.982;8.240;2022-08-19T12:27:17;27.60;48.40
1526;DHT22;756;49.982;8.240;2022-08-19T12:30:07;27.70;47.80
1526;DHT22;756;49.982;8.240;2022-08-19T12:32:34;27.70;47.80
1526;DHT22;756;49.982;8.240;2022-08-19T12:35:01;27.80;47.80
1526;DHT22;756;49.982;8.240;2022-08-19T12:37:28;27.80;47.90
1526;DHT22;756;49.982;8.240;2022-08-19T12:39:56;27.80;47.90
1526;DHT22;756;49.982;8.240;2022-08-19T12:42:23;27.80;47.80
1526;DHT22;756;49.982;8.240;2022-08-19T12:44:50;27.90;47.30
1526;DHT22;756;49.982;8.240;2022-08-19T12:47:18;27.90;47.70
1526;DHT22;756;49.982;8.240;2022-08-19T12:49:45;27.90;47.40
1526;DHT22;756;49.982;8.240;2022-08-19T12:52:20;27.80;47.70
1526;DHT22;756;49.982;8.240;2022-08-19T12:54:50;27.80;47.80
1526;DHT22;756;49.982;8.240;2022-08-19T12:57:21;27.80;47.10
1526;DHT22;756;49.982;8.240;2022-08-19T13:00:19;27.80;46.20
1526;DHT22;756;49.982;8.240;2022-08-19T13:02:49;27.80;46.20
1526;DHT22;756;49.982;8.240;2022-08-19T13:05:22;27.80;46.70
1526;DHT22;756;49.982;8.240;2022-08-19T13:07:51;27.90;46.70
1526;DHT22;756;49.982;8.240;2022-08-19T13:10:20;27.90;46.60
1526;DHT22;756;49.982;8.240;2022-08-19T13:12:49;27.90;46.40
1526;DHT22;756;49.982;8.240;2022-08-19T13:15:17;28.00;46.40
1526;DHT22;756;49.982;8.240;2022-08-19T13:17:51;28.00;46.70
1526;DHT22;756;49.982;8.240;2022-08-19T13:20:20;28.00;46.80
1526;DHT22;756;49.982;8.240;2022-08-19T13:22:47;28.00;47.10
1526;DHT22;756;49.982;8.240;2022-08-19T13:25:15;28.00;47.10
1526;DHT22;756;49.982;8.240;2022-08-19T13:27:44;27.90;47.10
1526;DHT22;756;49.982;8.240;2022-08-19T13:30:13;28.00;46.60
1526;DHT22;756;49.982;8.240;2022-08-19T13:32:59;28.00;45.90
1526;DHT22;756;49.982;8.240;2022-08-19T13:35:47;27.90;46.40
1526;DHT22;756;49.982;8.240;2022-08-19T13:38:16;27.90;46.60
1526;DHT22;756;49.982;8.240;2022-08-19T13:40:43;28.00;46.70
1526;DHT22;756;49.982;8.240;2022-08-19T13:43:10;28.00;46.50
1526;DHT22;756;49.982;8.240;2022-08-19T13:45:53;28.10;46.20
1526;DHT22;756;49.982;8.240;2022-08-19T13:48:23;28.10;45.70
1526;DHT22;756;49.982;8.240;2022-08-19T13:50:50;28.20;45.60
1526;DHT22;756;49.982;8.240;2022-08-19T13:53:17;28.20;44.90
1526;DHT22;756;49.982;8.240;2022-08-19T13:55:44;28.30;44.70
1526;DHT22;756;49.982;8.240;2022-08-19T13:58:11;28.40;44.40
1526;DHT22;756;49.982;8.240;2022-08-19T14:00:41;28.40;43.70
1526;DHT22;756;49.982;8.240;2022-08-19T14:03:09;28.40;43.50
1526;DHT22;756;49.982;8.240;2022-08-19T14:05:36;28.40;44.00
1526;DHT22;756;49.982;8.240;2022-08-19T14:08:03;28.40;43.50
1526;DHT22;756;49.982;8.240;2022-08-19T14:10:30;28.50;43.60
1526;DHT22;756;49.982;8.240;2022-08-19T14:13:00;28.60;43.20
1526;DHT22;756;49.982;8.240;2022-08-19T14:15:27;28.60;43.30
1526;DHT22;756;49.982;8.240;2022-08-19T14:17:54;28.70;44.00
1526;DHT22;756;49.982;8.240;2022-08-19T14:20:22;28.70;44.40
1526;DHT22;756;49.982;8.240;2022-08-19T14:22:52;28.80;44.20
1526;DHT22;756;49.982;8.240;2022-08-19T14:25:23;28.80;44.20
1526;DHT22;756;49.982;8.240;2022-08-19T14:27:51;28.70;44.40
1526;DHT22;756;49.982;8.240;2022-08-19T14:30:23;28.70;44.00
1526;DHT22;756;49.982;8.240;2022-08-19T14:32:52;28.70;43.80
1526;DHT22;756;49.982;8.240;2022-08-19T14:35:18;28.60;43.60
1526;DHT22;756;49.982;8.240;2022-08-19T14:37:45;28.60;43.90
1526;DHT22;756;49.982;8.240;2022-08-19T14:40:15;28.60;43.90
1526;DHT22;756;49.982;8.240;2022-08-19T14:42:42;28.60;43.80
1526;DHT22;756;49.982;8.240;2022-08-19T14:45:10;28.60;43.90
1526;DHT22;756;49.982;8.240;2022-08-19T14:47:38;28.60;44.40
1526;DHT22;756;49.982;8.240;2022-08-19T14:50:08;28.60;44.60
1526;DHT22;756;49.982;8.240;2022-08-19T14:52:43;28.60;44.60
1526;DHT22;756;49.982;8.240;2022-08-19T14:55:10;28.60;44.70
1526;DHT22;756;49.982;8.240;2022-08-19T14:57:36;28.60;44.50
1526;DHT22;756;49.982;8.240;2022-08-19T15:00:04;28.60;44.40
1526;DHT22;756;49.982;8.240;2022-08-19T15:02:31;28.70;44.00
1526;DHT22;756;49.982;8.240;2022-08-19T15:05:01;28.70;44.30
1526;DHT22;756;49.982;8.240;2022-08-19T15:07:28;28.60;44.50
1526;DHT22;756;49.982;8.240;2022-08-19T15:09:56;28.60;44.30
1526;DHT22;756;49.982;8.240;2022-08-19T15:12:23;28.60;44.50
1526;DHT22;756;49.982;8.240;2022-08-19T15:14:50;28.60;44.70
1526;DHT22;756;49.982;8.240;2022-08-19T15:17:21;28.70;44.60
1526;DHT22;756;49.982;8.240;2022-08-19T15:20:10;28.70;44.60
1526;DHT22;756;49.982;8.240;2022-08-19T15:22:39;28.70;44.80
1526;DHT22;756;49.982;8.240;2022-08-19T15:25:09;28.70;44.50
1526;DHT22;756;49.982;8.240;2022-08-19T15:27:38;28.80;44.50
1526;DHT22;756;49.982;8.240;2022-08-19T15:30:07;28.80;44.40
1526;DHT22;756;49.982;8.240;2022-08-19T15:32:35;28.80;44.00
1526;DHT22;756;49.982;8.240;2022-08-19T15:35:03;28.80;44.30
1526;DHT22;756;49.982;8.240;2022-08-19T15:37:30;28.80;44.40
1526;DHT22;756;49.982;8.240;2022-08-19T15:40:03;28.80;44.30
1526;DHT22;756;49.982;8.240;2022-08-19T15:42:30;28.90;44.10
1526;DHT22;756;49.982;8.240;2022-08-19T15:44:57;28.80;44.40
1526;DHT22;756;49.982;8.240;2022-08-19T15:47:31;28.80;44.10
1526;DHT22;756;49.982;8.240;2022-08-19T15:50:19;28.90;44.30
1526;DHT22;756;49.982;8.240;2022-08-19T15:52:51;28.90;44.50
1526;DHT22;756;49.982;8.240;2022-08-19T15:55:30;28.80;44.60
1526;DHT22;756;49.982;8.240;2022-08-19T15:58:06;28.80;44.90
1526;DHT22;756;49.982;8.240;2022-08-19T16:01:05;28.80;44.90
1526;DHT22;756;49.982;8.240;2022-08-19T16:03:54;28.80;44.50
1526;DHT22;756;49.982;8.240;2022-08-19T16:09:14;28.80;44.70
1526;DHT22;756;49.982;8.240;2022-08-19T16:11:42;28.80;44.50
1526;DHT22;756;49.982;8.240;2022-08-19T16:14:16;28.80;44.80
1526;DHT22;756;49.982;8.240;2022-08-19T16:16:43;28.80;44.60
1526;DHT22;756;49.982;8.240;2022-08-19T16:19:13;28.80;44.50
1526;DHT22;756;49.982;8.240;2022-08-19T16:21:50;28.70;44.60
1526;DHT22;756;49.982;8.240;2022-08-19T16:24:21;28.70;44.50
1526;DHT22;756;49.982;8.240;2022-08-19T16:26:48;28.70;44.50
1526;DHT22;756;49.982;8.240;2022-08-19T16:29:16;28.70;44.60
1526;DHT22;756;49.982;8.240;2022-08-19T16:31:59;28.60;44.50
1526;DHT22;756;49.982;8.240;2022-08-19T16:34:28;28.70;44.40
1526;DHT22;756;49.982;8.240;2022-08-19T16:36:55;28.60;44.40
1526;DHT22;756;49.982;8.240;2022-08-19T16:39:22;28.60;44.70
1526;DHT22;756;49.982;8.240;2022-08-19T16:41:49;28.50;45.10
1526;DHT22;756;49.982;8.240;2022-08-19T16:44:18;28.50;45.20
1526;DHT22;756;49.982;8.240;2022-08-19T16:46:47;28.50;45.30
1526;DHT22;756;49.982;8.240;2022-08-19T16:49:29;28.50;45.00
1526;DHT22;756;49.982;8.240;2022-08-19T16:52:17;28.60;45.20